Recycle, Texas
Current Conditions -  °F | °C
As of 2:55 PM on Thursday 27 Nov 2014 (Local Time) from KPEZ Reporting Station
Clear Clear  
Wind Chill: 67°   Ceiling: Unl
Heat Index: 67°   Visibility: 10mi
Dew Point: 35°   Wind: 9mph
Humidity: 30%   Direction: 70°ENE
Pressure: 30.39"   Gusts: NA
Location:  29.0306°N, 98.0993°W
Report Text: KPEZ 272055Z AUTO 07008KT 10SM CLR 20/01 A3039 RMK AO2 T01960014
Loading
Personal Weather Stations






























Interactive Weather Map New forecast layout! Learn more

10-Day Weather Forecast

Advertisements
Track Severe Weather on mobile